Hi Hat, KY (41636)

2:05 PM EDT on August 24, 2016 (GMT -0400)
Head of Greasy Creek | | Change Station

Elev 1322 ft 37.35 °N, 82.49 °W | Updated 15 seconds ago

Mostly Cloudy
Mostly Cloudy
82.8 °F
Feels Like 87 °F
N
0.0
Wind Variable Wind from SW
Gusts 0.0 mph

Today
High -- | Low -- °F
--% Chance of Precip.
Yesterday
High -- | Low -- °F
Precip. -- in
Pressure 30.25 in
Visibility 10.0 miles
Clouds Scattered Clouds 3100 ft
Mostly Cloudy 6500 ft
Heat Index 87 °F
Dew Point 70 °F
Humidity 66%
Rainfall 0.00 in
Snow Depth Not available.
6:55 AM 8:10 PM
Waning Gibbous, 55% visible
METAR KSJS 241755Z AUTO 26005KT 10SM SCT031 BKN065 28/21 A3025 RMK AO2 T02840212 10291 20197
Pressure 30.25 in
Visibility 10.0 miles
Clouds Scattered Clouds 3100 ft
Mostly Cloudy 6500 ft
Heat Index 87 °F
Dew Point 70 °F
Humidity 66%
Rainfall 0.00 in
Snow Depth Not available.
6:55 AM 8:10 PM
Waning Gibbous, 55% visible
METAR KSJS 241755Z AUTO 26005KT 10SM SCT031 BKN065 28/21 A3025 RMK AO2 T02840212 10291 20197

10-Day Weather Forecast

Almanac

Astronomy

Aug. 24, 2016 Rise Set
Actual Time
Civil Twilight
Nautical Twilight
Astronomical Twilight
Moon
Length of Visible Light
Length of Day
Tomorrow will be .
, % of the Moon is Illuminated

Today's Extremes

State Highs State Lows

Community

WunderPhotos

Upload Photos

1,934,662 photos uploaded!

WunderBlog® & News

Nearby

Air Quality

  Air Quality AQ Index Pollutant
Not available.

Snow Depth

Station Depth Elevation

Earthquake Activity

City Distance Mag. Time & Date
Minimum magnitude displayed is 2.5.

Coastal Water Temperatures

Place Temperature

Stations

Nearby Weather Stations

Station Location Temp. Windchill Dew Point Humidity Wind Precip. Elev Updated Type
                   

Watches & Warnings

There are currently no watches in effect.